createdAt,value
2018-07-30T00:03:08.503Z,27.10
2018-07-30T00:08:11.640Z,27.10
2018-07-30T00:13:14.756Z,27.00
2018-07-30T00:18:17.886Z,27.00
2018-07-30T00:23:21.015Z,27.00
2018-07-30T00:28:24.131Z,26.90
2018-07-30T00:33:27.236Z,26.80
2018-07-30T00:38:30.336Z,26.80
2018-07-30T00:43:33.453Z,26.70
2018-07-30T00:48:36.585Z,26.70
2018-07-30T00:53:39.686Z,26.60
2018-07-30T00:58:42.800Z,26.50
2018-07-30T01:03:45.883Z,26.50
2018-07-30T01:08:49.007Z,26.40
2018-07-30T01:13:52.168Z,26.40
2018-07-30T01:18:55.279Z,26.40
2018-07-30T01:29:07.912Z,26.30
2018-07-30T01:34:11.045Z,26.30
2018-07-30T01:39:14.153Z,26.20
2018-07-30T01:44:17.260Z,26.10
2018-07-30T01:49:20.366Z,26.10
2018-07-30T01:54:23.484Z,26.10
2018-07-30T01:59:26.602Z,26.10
2018-07-30T02:04:29.733Z,26.00
2018-07-30T02:09:32.864Z,26.00
2018-07-30T02:14:35.959Z,25.90
2018-07-30T02:19:39.063Z,25.90
2018-07-30T02:24:42.176Z,25.90
2018-07-30T02:29:45.311Z,25.80
2018-07-30T02:34:48.403Z,25.80
2018-07-30T02:44:54.457Z,25.70
2018-07-30T02:49:57.583Z,25.60
2018-07-30T02:55:00.676Z,25.60
2018-07-30T03:00:03.804Z,25.60
2018-07-30T03:05:06.925Z,25.50
2018-07-30T03:10:10.057Z,25.50
2018-07-30T03:15:13.172Z,25.40
2018-07-30T03:20:16.308Z,25.40
2018-07-30T03:25:19.428Z,25.30
2018-07-30T03:30:22.588Z,25.30
2018-07-30T03:35:25.720Z,25.20
2018-07-30T03:40:28.868Z,25.20
2018-07-30T03:45:31.994Z,25.20
2018-07-30T03:50:35.144Z,25.20
2018-07-30T03:55:38.292Z,25.10
2018-07-30T04:00:41.417Z,25.20
2018-07-30T04:10:47.480Z,25.10
2018-07-30T04:15:50.617Z,25.10
2018-07-30T04:20:53.847Z,25.00
2018-07-30T04:30:59.937Z,25.00
2018-07-30T04:36:03.198Z,25.00
2018-07-30T04:41:06.607Z,25.00
2018-07-30T04:46:09.748Z,25.00
2018-07-30T04:51:12.913Z,25.10
2018-07-30T04:56:16.210Z,25.20
2018-07-30T05:06:22.517Z,25.40
2018-07-30T05:16:28.592Z,25.60
2018-07-30T05:21:31.736Z,25.70
2018-07-30T05:26:34.886Z,25.80
2018-07-30T05:31:38.181Z,25.80
2018-07-30T05:36:41.265Z,25.90
2018-07-30T05:46:47.294Z,26.10
2018-07-30T05:51:50.436Z,26.10
2018-07-30T05:56:53.543Z,26.20
2018-07-30T06:01:56.685Z,26.20
2018-07-30T06:06:59.808Z,26.30
2018-07-30T06:12:02.951Z,26.30
2018-07-30T06:17:06.094Z,26.40
2018-07-30T06:22:09.252Z,26.40
2018-07-30T06:27:12.393Z,26.50
2018-07-30T06:32:15.605Z,26.60
2018-07-30T06:37:18.728Z,26.60
2018-07-30T06:42:21.902Z,26.70
2018-07-30T06:47:25.041Z,26.80
2018-07-30T06:52:28.173Z,27.00
2018-07-30T06:57:31.303Z,27.10
2018-07-30T07:02:34.581Z,27.20
2018-07-30T07:07:37.717Z,27.30
2018-07-30T07:12:40.881Z,27.40
2018-07-30T07:17:44.614Z,27.60
2018-07-30T07:22:47.748Z,27.70
2018-07-30T07:27:50.916Z,27.80
2018-07-30T07:32:54.006Z,28.00
2018-07-30T07:37:57.168Z,28.10
2018-07-30T07:48:03.204Z,28.40
2018-07-30T07:53:06.357Z,28.60
2018-07-30T07:58:09.504Z,28.80
2018-07-30T08:03:12.654Z,29.00
2018-07-30T08:08:15.794Z,29.20
2018-07-30T08:13:18.988Z,29.40
2018-07-30T08:18:22.109Z,29.60
2018-07-30T08:23:25.222Z,29.70
2018-07-30T08:28:28.341Z,29.90
2018-07-30T08:33:31.489Z,30.00
2018-07-30T08:38:34.624Z,30.30
2018-07-30T08:43:38.045Z,30.60
2018-07-30T08:48:41.214Z,30.80
2018-07-30T08:53:44.350Z,31.10
2018-07-30T08:58:47.468Z,31.10
2018-07-30T09:03:50.589Z,31.40
2018-07-30T09:08:53.882Z,31.50
2018-07-30T09:13:57.007Z,31.80
2018-07-30T09:19:00.154Z,32.10
2018-07-30T09:24:03.604Z,32.40
2018-07-30T09:29:06.724Z,32.70
2018-07-30T09:34:10.025Z,32.60
2018-07-30T09:39:13.241Z,32.60
2018-07-30T09:44:16.440Z,32.90
2018-07-30T09:49:20.409Z,33.10
2018-07-30T09:54:23.565Z,33.10
2018-07-30T09:59:26.724Z,33.20
2018-07-30T10:04:29.865Z,33.30
2018-07-30T10:09:33.025Z,33.40
2018-07-30T10:14:36.221Z,33.40
2018-07-30T10:19:39.382Z,33.50
2018-07-30T10:24:42.510Z,33.50
2018-07-30T10:29:45.633Z,33.60
2018-07-30T10:34:48.748Z,33.80
2018-07-30T10:39:51.922Z,34.00
2018-07-30T10:44:55.037Z,34.10
2018-07-30T10:49:58.152Z,34.20
2018-07-30T10:55:01.306Z,34.50
2018-07-30T11:00:04.773Z,34.70
2018-07-30T11:05:08.198Z,35.00
2018-07-30T11:10:11.321Z,35.20
2018-07-30T11:15:14.491Z,35.50
2018-07-30T11:20:17.612Z,35.60
2018-07-30T11:25:20.740Z,35.80
2018-07-30T11:30:23.863Z,36.00
2018-07-30T11:40:29.926Z,36.40
2018-07-30T11:45:33.129Z,36.60
2018-07-30T11:50:36.247Z,36.70
2018-07-30T11:55:39.385Z,36.90
2018-07-30T12:00:42.525Z,37.10
2018-07-30T12:05:45.659Z,37.30
2018-07-30T12:10:48.858Z,37.50
2018-07-30T12:15:52.314Z,37.80
2018-07-30T12:20:55.642Z,38.00
2018-07-30T12:25:58.777Z,38.30
2018-07-30T12:31:01.930Z,38.60
2018-07-30T12:36:05.280Z,38.80
2018-07-30T12:41:08.415Z,38.90
2018-07-30T12:46:11.529Z,39.00
2018-07-30T12:51:14.700Z,39.00
2018-07-30T13:01:20.801Z,39.20
2018-07-30T13:06:23.931Z,39.20
2018-07-30T13:11:27.054Z,39.30
2018-07-30T13:16:30.292Z,39.30
2018-07-30T13:21:33.492Z,39.40
2018-07-30T13:26:36.827Z,39.50
2018-07-30T13:36:43.045Z,39.70
2018-07-30T13:41:46.213Z,39.80
2018-07-30T13:46:49.424Z,39.90
2018-07-30T13:51:52.649Z,40.00
2018-07-30T13:56:55.789Z,40.10
2018-07-30T14:01:58.928Z,40.30
2018-07-30T14:07:02.069Z,40.30
2018-07-30T14:12:05.205Z,40.40
2018-07-30T14:17:08.357Z,40.40
2018-07-30T14:22:11.481Z,40.40
2018-07-30T14:27:14.740Z,40.30
2018-07-30T14:32:17.911Z,40.20
2018-07-30T14:37:21.113Z,40.10
2018-07-30T14:42:24.268Z,40.00
2018-07-30T14:48:51.924Z,39.90
2018-07-30T14:53:55.060Z,39.80
2018-07-30T14:58:58.204Z,39.60
2018-07-30T15:04:01.326Z,39.60
2018-07-30T15:09:07.997Z,39.50
2018-07-30T15:14:11.144Z,39.50
2018-07-30T15:19:14.333Z,39.40
2018-07-30T15:24:17.393Z,39.30
2018-07-30T15:29:20.517Z,39.10
2018-07-30T15:34:23.661Z,38.80
2018-07-30T15:39:26.772Z,38.90
2018-07-30T15:44:29.931Z,38.80
2018-07-30T15:49:33.064Z,38.70
2018-07-30T15:54:36.197Z,38.70
2018-07-30T15:59:39.416Z,38.70
2018-07-30T16:04:42.569Z,38.50
2018-07-30T16:09:45.712Z,38.50
2018-07-30T16:14:48.840Z,38.40
2018-07-30T16:19:52.037Z,38.30
2018-07-30T16:24:55.180Z,38.20
2018-07-30T16:29:58.380Z,38.10
2018-07-30T16:35:01.539Z,38.00
2018-07-30T16:40:05.264Z,38.00
2018-07-30T16:45:09.140Z,37.80
2018-07-30T16:50:12.293Z,37.70
2018-07-30T16:55:15.433Z,37.60
2018-07-30T17:00:18.536Z,37.60
2018-07-30T17:05:21.688Z,37.50
2018-07-30T17:15:27.763Z,37.40
2018-07-30T17:20:30.937Z,37.20
2018-07-30T17:25:34.080Z,37.10
2018-07-30T17:30:37.189Z,37.00
2018-07-30T17:35:40.288Z,36.90
2018-07-30T17:40:43.415Z,36.80
2018-07-30T17:45:46.531Z,36.70
2018-07-30T17:50:49.657Z,36.50
2018-07-30T17:55:52.784Z,36.50
2018-07-30T18:00:55.939Z,36.30
2018-07-30T18:05:59.061Z,36.20
2018-07-30T18:11:02.231Z,36.10
2018-07-30T18:16:05.388Z,35.90
2018-07-30T18:21:08.533Z,35.80
2018-07-30T18:26:11.645Z,35.70
2018-07-30T18:31:14.799Z,35.60
2018-07-30T18:36:18.176Z,35.50
2018-07-30T18:41:21.286Z,35.40
2018-07-30T18:46:24.554Z,35.20
2018-07-30T18:51:27.690Z,35.20
2018-07-30T18:56:30.899Z,35.00
2018-07-30T19:01:33.960Z,34.90
2018-07-30T19:06:37.077Z,34.80
2018-07-30T19:11:40.229Z,34.70
2018-07-30T19:16:43.349Z,34.50
2018-07-30T19:21:46.478Z,34.40
2018-07-30T19:26:49.615Z,34.20
2018-07-30T19:31:52.741Z,34.00
2018-07-30T19:36:55.965Z,33.90
2018-07-30T19:41:59.072Z,33.70
2018-07-30T19:47:02.240Z,33.50
2018-07-30T19:52:05.396Z,33.40
2018-07-30T19:57:08.605Z,33.20
2018-07-30T20:02:11.725Z,33.10
2018-07-30T20:07:14.811Z,32.90
2018-07-30T20:12:18.020Z,32.70
2018-07-30T20:17:21.076Z,32.60
2018-07-30T20:22:24.204Z,32.40
2018-07-30T20:27:27.422Z,32.30
2018-07-30T20:32:30.641Z,32.20
2018-07-30T20:37:33.876Z,32.00
2018-07-30T20:42:37.501Z,31.90
2018-07-30T20:47:40.614Z,31.80
2018-07-30T20:52:43.764Z,31.70
2018-07-30T20:57:46.892Z,31.60
2018-07-30T21:02:50.109Z,31.50
2018-07-30T21:07:53.240Z,31.40
2018-07-30T21:12:56.389Z,31.30
2018-07-30T21:17:59.504Z,31.20
2018-07-30T21:23:02.748Z,31.10
2018-07-30T21:28:05.880Z,31.00
2018-07-30T21:33:09.026Z,30.90
2018-07-30T21:38:12.141Z,30.80
2018-07-30T21:43:15.388Z,30.70
2018-07-30T21:48:18.598Z,30.60
2018-07-30T21:53:21.781Z,30.50
2018-07-30T21:58:25.142Z,30.40
2018-07-30T22:03:28.268Z,30.40
2018-07-30T22:08:31.385Z,30.20
2018-07-30T22:13:34.517Z,30.20
2018-07-30T22:18:37.633Z,30.10
2018-07-30T22:23:40.785Z,30.00
2018-07-30T22:28:43.892Z,30.00
2018-07-30T22:33:47.884Z,29.90
2018-07-30T22:38:51.000Z,29.90
2018-07-30T22:43:54.154Z,29.80
2018-07-30T22:48:57.296Z,29.70
2018-07-30T22:54:00.419Z,29.70
2018-07-30T22:59:03.572Z,29.60
2018-07-30T23:04:06.712Z,29.60
2018-07-30T23:09:09.877Z,29.50
2018-07-30T23:14:13.029Z,29.50
2018-07-30T23:19:16.121Z,29.50
2018-07-30T23:24:19.252Z,29.40
2018-07-30T23:29:22.393Z,29.40
2018-07-30T23:34:25.518Z,29.40
2018-07-30T23:44:31.672Z,29.20
2018-07-30T23:49:34.852Z,29.20
2018-07-30T23:54:37.977Z,29.20
2018-07-30T23:59:41.113Z,29.10
